createdAt,value
2022-09-28T00:01:52.165Z,7.84
2022-09-28T00:06:53.746Z,7.81
2022-09-28T00:11:56.209Z,7.89
2022-09-28T00:16:57.791Z,7.70
2022-09-28T00:21:59.257Z,7.71
2022-09-28T00:27:02.502Z,7.68
2022-09-28T00:32:10.735Z,7.67
2022-09-28T00:37:13.771Z,7.54
2022-09-28T00:42:17.435Z,7.43
2022-09-28T00:47:43.168Z,7.50
2022-09-28T00:53:06.332Z,7.46
2022-09-28T00:58:12.259Z,7.46
2022-09-28T01:03:14.360Z,7.56
2022-09-28T01:08:17.515Z,7.84
2022-09-28T01:13:20.842Z,7.75
2022-09-28T01:18:34.354Z,7.97
2022-09-28T01:24:02.383Z,7.77
2022-09-28T01:29:19.413Z,7.93
2022-09-28T01:34:28.743Z,7.80
2022-09-28T01:39:36.011Z,8.09
2022-09-28T01:44:42.631Z,7.94
2022-09-28T01:49:57.971Z,8.04
2022-09-28T01:55:31.249Z,8.10
2022-09-28T02:00:36.055Z,8.09
2022-09-28T02:05:40.659Z,8.18
2022-09-28T02:10:48.399Z,8.17
2022-09-28T02:16:03.567Z,8.21
2022-09-28T02:21:15.044Z,8.23
2022-09-28T02:26:21.385Z,8.23
2022-09-28T02:31:23.924Z,8.32
2022-09-28T02:36:27.504Z,8.28
2022-09-28T02:41:47.364Z,8.18
2022-09-28T02:47:10.687Z,8.14
2022-09-28T02:52:15.254Z,8.06
2022-09-28T02:57:37.395Z,8.13
2022-09-28T03:03:02.334Z,8.08
2022-09-28T03:08:31.166Z,8.04
2022-09-28T03:13:35.158Z,8.07
2022-09-28T03:18:36.894Z,8.00
2022-09-28T03:23:40.374Z,8.03
2022-09-28T03:28:42.058Z,8.02
2022-09-28T03:33:48.484Z,8.06
2022-09-28T03:38:55.072Z,8.11
2022-09-28T03:43:58.504Z,8.09
2022-09-28T03:49:02.169Z,8.07
2022-09-28T03:54:04.197Z,8.09
2022-09-28T03:59:05.802Z,8.08
2022-09-28T04:04:07.408Z,8.13
2022-09-28T04:09:11.526Z,8.22
2022-09-28T04:14:13.168Z,8.22
2022-09-28T04:19:15.844Z,8.23
2022-09-28T04:24:24.650Z,8.21
2022-09-28T04:29:26.582Z,8.23
2022-09-28T04:34:37.091Z,8.22
2022-09-28T04:39:43.019Z,7.95
2022-09-28T04:44:46.955Z,8.06
2022-09-28T04:49:48.552Z,8.00
2022-09-28T04:54:54.369Z,8.21
2022-09-28T04:59:56.202Z,8.23
2022-09-28T05:04:58.916Z,8.15
2022-09-28T05:10:31.164Z,7.99
2022-09-28T05:15:34.661Z,7.78
2022-09-28T05:20:41.152Z,7.68
2022-09-28T05:25:45.264Z,7.20
2022-09-28T05:30:52.896Z,7.42
2022-09-28T05:36:03.645Z,7.40
2022-09-28T05:41:06.786Z,7.40
2022-09-28T05:46:08.588Z,7.05
2022-09-28T05:51:13.289Z,7.26
2022-09-28T05:56:14.911Z,7.41
2022-09-28T06:01:19.100Z,7.24
2022-09-28T06:06:21.104Z,7.53
2022-09-28T06:11:27.024Z,7.44
2022-09-28T06:16:31.029Z,7.44
2022-09-28T06:21:33.073Z,7.26
2022-09-28T06:26:34.640Z,7.24
2022-09-28T06:31:36.397Z,7.25
2022-09-28T06:36:38.668Z,7.52
2022-09-28T06:41:41.233Z,7.87
2022-09-28T06:46:49.736Z,8.09
2022-09-28T06:51:51.933Z,8.25
2022-09-28T06:56:56.131Z,8.42
2022-09-28T07:01:57.800Z,8.42
2022-09-28T07:07:22.440Z,8.49
2022-09-28T07:12:35.862Z,8.59
2022-09-28T07:17:58.971Z,8.87
2022-09-28T07:23:17.659Z,9.31
2022-09-28T07:28:41.436Z,10.04
2022-09-28T07:33:53.939Z,10.44
2022-09-28T07:39:03.478Z,10.69
2022-09-28T07:44:08.332Z,10.78
2022-09-28T07:49:15.539Z,11.51
2022-09-28T07:54:52.134Z,11.59
2022-09-28T08:00:09.486Z,11.80
2022-09-28T08:05:19.911Z,11.84
2022-09-28T08:10:22.416Z,11.18
2022-09-28T08:15:51.760Z,11.01
2022-09-28T08:21:25.894Z,10.69
2022-09-28T08:26:29.080Z,10.69
2022-09-28T08:31:31.179Z,11.77
2022-09-28T08:36:53.588Z,11.73
2022-09-28T08:42:20.935Z,11.56
2022-09-28T08:48:27.629Z,11.34
2022-09-28T08:54:06.850Z,11.65
2022-09-28T08:59:43.586Z,11.24
2022-09-28T09:04:52.013Z,13.29
2022-09-28T09:10:26.269Z,13.60
2022-09-28T09:15:53.865Z,13.43
2022-09-28T09:21:15.533Z,14.23
2022-09-28T09:26:24.661Z,14.84
2022-09-28T09:31:50.147Z,13.06
2022-09-28T09:37:17.874Z,12.17
2022-09-28T09:43:08.896Z,13.93
2022-09-28T09:48:38.276Z,12.94
2022-09-28T09:53:47.221Z,13.34
2022-09-28T09:58:53.350Z,14.24
2022-09-28T10:04:25.887Z,15.30
2022-09-28T10:09:44.042Z,14.34
2022-09-28T10:15:03.049Z,14.24
2022-09-28T10:20:13.498Z,14.22
2022-09-28T10:25:33.991Z,13.76
2022-09-28T10:30:42.789Z,14.26
2022-09-28T10:35:47.767Z,14.02
2022-09-28T10:40:51.496Z,15.52
2022-09-28T10:46:14.037Z,16.07
2022-09-28T10:51:39.177Z,15.94
2022-09-28T10:56:41.973Z,14.53
2022-09-28T11:02:18.592Z,16.33
2022-09-28T11:07:24.769Z,16.73
2022-09-28T11:12:29.400Z,14.80
2022-09-28T11:17:38.805Z,14.70
2022-09-28T11:22:42.370Z,14.53
2022-09-28T11:27:51.841Z,16.27
2022-09-28T11:33:03.544Z,15.45
2022-09-28T11:39:04.932Z,16.12
2022-09-28T11:44:23.909Z,16.48
2022-09-28T11:49:56.472Z,15.33
2022-09-28T11:55:05.775Z,16.56
2022-09-28T12:00:15.475Z,16.49
2022-09-28T12:05:31.539Z,16.58
2022-09-28T12:10:45.429Z,16.50
2022-09-28T12:16:45.179Z,16.07
2022-09-28T12:21:24.688Z,15.51
2022-09-28T12:26:48.282Z,15.40
2022-09-28T12:32:02.571Z,15.72
2022-09-28T12:37:22.958Z,15.67
2022-09-28T12:42:36.690Z,15.17
2022-09-28T12:48:03.186Z,14.95
2022-09-28T12:53:38.807Z,16.55
2022-09-28T12:59:08.965Z,15.52
2022-09-28T13:04:17.219Z,16.10
2022-09-28T13:09:21.618Z,16.40
2022-09-28T13:14:44.836Z,16.11
2022-09-28T13:19:59.672Z,16.84
2022-09-28T13:25:07.836Z,16.38
2022-09-28T13:30:14.584Z,15.50
2022-09-28T13:35:21.703Z,14.63
2022-09-28T13:41:01.615Z,15.73
2022-09-28T13:46:10.376Z,15.09
2022-09-28T13:51:29.730Z,15.05
2022-09-28T13:56:40.684Z,15.58
2022-09-28T14:02:00.721Z,15.21
2022-09-28T14:07:15.285Z,15.04
2022-09-28T14:12:35.281Z,15.89
2022-09-28T14:17:54.359Z,16.02
2022-09-28T14:23:14.154Z,16.72
2022-09-28T14:28:39.073Z,15.90
2022-09-28T14:33:42.840Z,14.93
2022-09-28T14:39:08.359Z,14.51
2022-09-28T14:44:12.544Z,14.59
2022-09-28T14:49:16.903Z,14.37
2022-09-28T14:54:21.206Z,14.08
2022-09-28T14:59:42.896Z,13.90
2022-09-28T15:05:14.013Z,14.37
2022-09-28T15:10:33.323Z,12.98
2022-09-28T15:15:40.810Z,11.64
2022-09-28T15:20:46.722Z,9.96
2022-09-28T15:25:53.064Z,9.38
2022-09-28T15:31:03.006Z,9.65
2022-09-28T15:36:07.868Z,9.32
2022-09-28T15:41:11.181Z,9.26
2022-09-28T15:46:18.404Z,9.62
2022-09-28T15:51:22.066Z,9.69
2022-09-28T15:56:24.356Z,9.75
2022-09-28T16:01:36.659Z,10.04
2022-09-28T16:06:40.820Z,10.41
2022-09-28T16:11:42.360Z,10.69
2022-09-28T16:16:48.201Z,10.75
2022-09-28T16:21:53.527Z,10.65
2022-09-28T16:27:06.847Z,10.56
2022-09-28T16:32:26.573Z,10.46
2022-09-28T16:37:32.235Z,10.61
2022-09-28T16:42:33.822Z,10.41
2022-09-28T16:47:36.046Z,10.30
2022-09-28T16:52:59.845Z,10.48
2022-09-28T16:58:04.554Z,10.49
2022-09-28T17:03:18.473Z,10.46
2022-09-28T17:08:22.320Z,10.33
2022-09-28T17:13:33.382Z,10.18
2022-09-28T17:18:39.087Z,10.22
2022-09-28T17:23:40.582Z,10.14
2022-09-28T17:28:42.204Z,9.98
2022-09-28T17:33:43.827Z,9.83
2022-09-28T17:38:46.729Z,9.82
2022-09-28T17:43:49.256Z,9.95
2022-09-28T17:48:50.800Z,9.91
2022-09-28T17:53:54.403Z,9.66
2022-09-28T17:58:58.436Z,9.47
2022-09-28T18:04:01.549Z,9.45
2022-09-28T18:09:04.004Z,9.31
2022-09-28T18:14:10.463Z,9.24
2022-09-28T18:19:12.670Z,9.32
2022-09-28T18:24:14.211Z,9.18
2022-09-28T18:29:17.524Z,9.15
2022-09-28T18:34:19.242Z,9.12
2022-09-28T18:39:21.106Z,9.08
2022-09-28T18:44:23.990Z,8.92
2022-09-28T18:49:25.584Z,8.65
2022-09-28T18:54:27.225Z,8.73
2022-09-28T18:59:28.770Z,8.78
2022-09-28T19:04:31.108Z,8.82
2022-09-28T19:09:33.024Z,8.77
2022-09-28T19:14:34.551Z,8.69
2022-09-28T19:19:37.056Z,8.69
2022-09-28T19:24:38.689Z,8.78
2022-09-28T19:29:40.173Z,8.74
2022-09-28T19:34:41.677Z,8.62
2022-09-28T19:39:43.165Z,8.35
2022-09-28T19:44:44.863Z,8.45
2022-09-28T19:49:46.807Z,8.29
2022-09-28T19:54:56.458Z,8.20
2022-09-28T20:00:02.429Z,8.26
2022-09-28T20:05:07.933Z,8.16
2022-09-28T20:10:12.383Z,8.12
2022-09-28T20:15:13.954Z,8.13
2022-09-28T20:20:15.586Z,8.02
2022-09-28T20:25:17.058Z,8.05
2022-09-28T20:30:18.672Z,8.03
2022-09-28T20:35:32.315Z,8.04
2022-09-28T20:40:36.551Z,7.92
2022-09-28T20:45:38.149Z,7.83
2022-09-28T20:50:41.319Z,7.71
2022-09-28T20:55:42.785Z,8.05
2022-09-28T21:00:44.264Z,7.82
2022-09-28T21:05:46.414Z,7.55
2022-09-28T21:10:47.906Z,7.59
2022-09-28T21:15:50.004Z,7.58
2022-09-28T21:20:51.600Z,7.58
2022-09-28T21:26:11.087Z,7.42
2022-09-28T21:31:12.973Z,7.35
2022-09-28T21:36:14.506Z,7.19
2022-09-28T21:41:16.313Z,7.15
2022-09-28T21:46:18.003Z,7.08
2022-09-28T21:51:20.091Z,7.09
2022-09-28T21:56:23.072Z,7.24
2022-09-28T22:01:26.062Z,7.16
2022-09-28T22:06:28.191Z,7.14
2022-09-28T22:11:29.751Z,7.08
2022-09-28T22:16:31.818Z,6.98
2022-09-28T22:21:34.987Z,6.92
2022-09-28T22:26:37.888Z,7.13
2022-09-28T22:31:40.731Z,7.03
2022-09-28T22:36:42.445Z,7.04
2022-09-28T22:41:43.986Z,7.03
2022-09-28T22:46:46.532Z,7.07
2022-09-28T22:51:48.303Z,7.10
2022-09-28T22:56:49.880Z,7.04
2022-09-28T23:01:51.410Z,7.03
2022-09-28T23:06:52.901Z,7.02
2022-09-28T23:11:54.405Z,7.15
2022-09-28T23:16:55.881Z,6.90
2022-09-28T23:21:59.247Z,6.82
2022-09-28T23:27:00.806Z,6.70
2022-09-28T23:32:02.353Z,6.72
2022-09-28T23:37:03.825Z,6.70
2022-09-28T23:42:05.889Z,6.73
2022-09-28T23:47:07.409Z,6.80
2022-09-28T23:52:09.099Z,6.86
2022-09-28T23:57:10.631Z,6.87
